createdAt,value
2017-03-19T00:03:11.443Z,8.88
2017-03-19T00:08:07.937Z,9.00
2017-03-19T00:13:05.237Z,8.89
2017-03-19T00:18:01.636Z,8.94
2017-03-19T00:22:58.186Z,8.95
2017-03-19T00:27:54.750Z,8.92
2017-03-19T00:32:51.273Z,8.92
2017-03-19T00:37:48.256Z,9.11
2017-03-19T00:42:44.559Z,9.03
2017-03-19T00:47:40.959Z,8.99
2017-03-19T00:52:37.438Z,9.06
2017-03-19T00:57:34.012Z,9.16
2017-03-19T01:02:30.578Z,9.02
2017-03-19T01:07:27.092Z,8.89
2017-03-19T01:12:23.422Z,9.10
2017-03-19T01:17:19.576Z,9.16
2017-03-19T01:22:16.259Z,9.02
2017-03-19T01:27:12.702Z,9.13
2017-03-19T01:32:09.063Z,8.97
2017-03-19T01:37:05.422Z,8.89
2017-03-19T01:42:02.196Z,8.91
2017-03-19T01:46:58.626Z,8.92
2017-03-19T01:51:54.977Z,8.99
2017-03-19T01:56:51.860Z,8.97
2017-03-19T02:01:48.824Z,8.91
2017-03-19T02:06:45.329Z,8.91
2017-03-19T02:11:41.975Z,8.89
2017-03-19T02:16:38.195Z,8.91
2017-03-19T02:21:34.599Z,8.92
2017-03-19T02:26:30.626Z,9.10
2017-03-19T02:31:27.160Z,8.95
2017-03-19T02:36:23.587Z,9.00
2017-03-19T02:41:20.227Z,8.95
2017-03-19T02:46:16.809Z,8.89
2017-03-19T02:51:14.308Z,8.99
2017-03-19T02:56:10.090Z,8.92
2017-03-19T03:01:06.767Z,8.99
2017-03-19T03:06:03.046Z,9.13
2017-03-19T03:10:59.646Z,9.22
2017-03-19T03:15:56.691Z,9.21
2017-03-19T03:20:53.028Z,9.18
2017-03-19T03:25:50.009Z,9.14
2017-03-19T03:30:46.633Z,9.23
2017-03-19T03:35:43.128Z,9.29
2017-03-19T03:40:39.775Z,9.32
2017-03-19T03:45:36.349Z,9.29
2017-03-19T03:50:32.848Z,9.46
2017-03-19T03:55:29.282Z,9.43
2017-03-19T04:00:25.341Z,9.54
2017-03-19T04:05:22.809Z,9.48
2017-03-19T04:10:19.137Z,9.50
2017-03-19T04:15:16.505Z,9.55
2017-03-19T04:20:12.688Z,9.50
2017-03-19T04:25:09.191Z,9.58
2017-03-19T04:30:05.810Z,9.61
2017-03-19T04:35:02.332Z,9.64
2017-03-19T04:39:59.054Z,9.56
2017-03-19T04:44:55.875Z,9.55
2017-03-19T04:49:52.890Z,9.64
2017-03-19T04:54:49.264Z,9.69
2017-03-19T04:59:46.031Z,9.73
2017-03-19T05:04:43.096Z,9.83
2017-03-19T05:09:40.114Z,9.91
2017-03-19T05:14:36.703Z,9.94
2017-03-19T05:19:33.098Z,10.02
2017-03-19T05:24:29.535Z,10.17
2017-03-19T05:29:26.441Z,10.19
2017-03-19T05:34:22.770Z,10.33
2017-03-19T05:39:19.696Z,10.33
2017-03-19T05:44:16.470Z,10.44
2017-03-19T05:54:13.171Z,10.54
2017-03-19T05:59:09.833Z,10.48
2017-03-19T06:04:06.610Z,10.59
2017-03-19T06:09:03.052Z,10.59
2017-03-19T06:13:59.634Z,10.63
2017-03-19T06:18:56.696Z,10.63
2017-03-19T06:23:53.184Z,10.57
2017-03-19T06:28:51.074Z,10.64
2017-03-19T06:33:47.344Z,10.57
2017-03-19T06:38:44.521Z,10.68
2017-03-19T06:43:41.325Z,10.75
2017-03-19T06:48:37.844Z,10.79
2017-03-19T06:53:33.954Z,10.84
2017-03-19T06:58:30.801Z,10.76
2017-03-19T07:03:26.715Z,10.78
2017-03-19T07:08:23.853Z,10.87
2017-03-19T07:13:20.624Z,10.82
2017-03-19T07:18:17.312Z,10.87
2017-03-19T07:23:13.737Z,11.05
2017-03-19T07:28:10.464Z,10.96
2017-03-19T07:33:08.217Z,10.96
2017-03-19T07:38:04.939Z,11.02
2017-03-19T07:43:01.939Z,11.00
2017-03-19T07:47:59.054Z,11.10
2017-03-19T07:52:56.128Z,11.22
2017-03-19T07:57:53.033Z,11.15
2017-03-19T08:02:49.692Z,11.15
2017-03-19T08:07:46.733Z,11.27
2017-03-19T08:12:43.805Z,11.30
2017-03-19T08:17:39.711Z,11.25
2017-03-19T08:22:36.376Z,11.19
2017-03-19T08:27:33.183Z,11.19
2017-03-19T08:32:30.168Z,11.25
2017-03-19T08:37:26.923Z,11.15
2017-03-19T08:42:23.551Z,11.29
2017-03-19T08:47:20.278Z,11.18
2017-03-19T08:52:16.394Z,11.30
2017-03-19T08:57:13.031Z,11.29
2017-03-19T09:02:09.673Z,11.32
2017-03-19T09:07:06.151Z,11.35
2017-03-19T09:12:02.631Z,11.40
2017-03-19T09:16:59.386Z,11.32
2017-03-19T09:21:55.791Z,11.36
2017-03-19T09:26:52.889Z,11.44
2017-03-19T09:31:49.235Z,11.43
2017-03-19T09:36:47.087Z,11.44
2017-03-19T09:41:43.711Z,11.50
2017-03-19T09:46:40.027Z,11.54
2017-03-19T09:51:36.490Z,11.57
2017-03-19T09:56:33.345Z,11.65
2017-03-19T10:01:30.822Z,11.62
2017-03-19T10:06:27.424Z,11.75
2017-03-19T10:11:23.938Z,11.73
2017-03-19T10:16:20.269Z,11.73
2017-03-19T10:21:17.242Z,11.86
2017-03-19T10:26:13.836Z,11.86
2017-03-19T10:31:10.326Z,11.81
2017-03-19T10:36:06.808Z,11.84
2017-03-19T10:41:03.285Z,11.84
2017-03-19T10:46:00.172Z,11.78
2017-03-19T10:50:56.362Z,11.88
2017-03-19T10:55:53.691Z,11.83
2017-03-19T11:00:49.910Z,11.91
2017-03-19T11:05:46.651Z,11.91
2017-03-19T11:10:43.417Z,12.04
2017-03-19T11:15:40.308Z,12.18
2017-03-19T11:20:36.870Z,12.12
2017-03-19T11:25:33.447Z,12.37
2017-03-19T11:30:31.578Z,12.80
2017-03-19T11:35:28.551Z,13.04
2017-03-19T11:40:25.840Z,13.22
2017-03-19T11:45:22.310Z,13.19
2017-03-19T11:50:18.710Z,13.27
2017-03-19T11:55:15.280Z,13.23
2017-03-19T12:00:11.468Z,13.09
2017-03-19T12:05:07.750Z,12.94
2017-03-19T12:10:04.692Z,12.85
2017-03-19T12:15:00.797Z,12.76
2017-03-19T12:19:57.477Z,12.86
2017-03-19T12:24:53.874Z,12.70
2017-03-19T12:29:50.534Z,12.57
2017-03-19T12:34:47.271Z,12.53
2017-03-19T12:39:44.055Z,12.47
2017-03-19T12:44:40.651Z,12.28
2017-03-19T12:49:37.353Z,12.17
2017-03-19T12:54:33.653Z,12.04
2017-03-19T12:59:30.165Z,12.06
2017-03-19T13:04:26.852Z,12.13
2017-03-19T13:09:23.627Z,12.13
2017-03-19T13:14:20.724Z,12.32
2017-03-19T13:19:17.683Z,12.83
2017-03-19T13:24:15.629Z,13.46
2017-03-19T13:29:11.967Z,13.63
2017-03-19T13:34:08.553Z,13.25
2017-03-19T13:39:05.192Z,13.30
2017-03-19T13:44:01.527Z,13.30
2017-03-19T13:48:59.424Z,13.31
2017-03-19T13:53:57.305Z,13.23
2017-03-19T13:58:53.462Z,13.05
2017-03-19T14:03:49.572Z,12.93
2017-03-19T14:08:46.068Z,12.90
2017-03-19T14:13:42.985Z,12.93
2017-03-19T14:18:39.388Z,12.97
2017-03-19T14:23:36.161Z,13.13
2017-03-19T14:28:33.192Z,13.18
2017-03-19T14:33:29.469Z,13.00
2017-03-19T14:38:25.693Z,12.98
2017-03-19T14:43:22.407Z,13.12
2017-03-19T14:48:19.799Z,13.01
2017-03-19T14:53:16.171Z,13.05
2017-03-19T14:58:12.385Z,13.01
2017-03-19T15:03:09.347Z,12.91
2017-03-19T15:08:05.714Z,13.01
2017-03-19T15:13:02.235Z,12.98
2017-03-19T15:17:58.629Z,12.82
2017-03-19T15:22:56.013Z,12.76
2017-03-19T15:27:52.905Z,12.76
2017-03-19T15:32:49.815Z,12.78
2017-03-19T15:37:46.348Z,12.70
2017-03-19T15:42:42.992Z,12.57
2017-03-19T15:47:39.313Z,12.54
2017-03-19T15:52:36.166Z,12.39
2017-03-19T15:57:32.672Z,12.43
2017-03-19T16:02:29.409Z,12.42
2017-03-19T16:07:26.147Z,12.50
2017-03-19T16:12:22.615Z,12.43
2017-03-19T16:17:19.313Z,12.57
2017-03-19T16:27:15.818Z,12.53
2017-03-19T16:32:11.898Z,12.50
2017-03-19T16:37:09.081Z,12.39
2017-03-19T16:42:05.686Z,12.35
2017-03-19T16:47:02.131Z,12.22
2017-03-19T16:51:58.751Z,12.17
2017-03-19T16:56:55.879Z,12.06
2017-03-19T17:01:52.282Z,11.87
2017-03-19T17:06:48.613Z,11.59
2017-03-19T17:11:44.933Z,11.48
2017-03-19T17:16:41.009Z,11.40
2017-03-19T17:21:37.497Z,11.37
2017-03-19T17:26:33.886Z,11.22
2017-03-19T17:31:30.716Z,11.17
2017-03-19T17:36:27.006Z,11.10
2017-03-19T17:41:23.332Z,11.04
2017-03-19T17:46:19.598Z,11.05
2017-03-19T17:51:16.198Z,10.93
2017-03-19T17:56:12.489Z,11.02
2017-03-19T18:01:09.345Z,10.92
2017-03-19T18:06:05.679Z,10.90
2017-03-19T18:11:03.640Z,10.89
2017-03-19T18:15:59.940Z,10.90
2017-03-19T18:20:57.518Z,10.93
2017-03-19T18:25:53.919Z,10.90
2017-03-19T18:30:50.993Z,10.89
2017-03-19T18:35:47.439Z,10.92
2017-03-19T18:40:44.796Z,10.94
2017-03-19T18:45:41.174Z,10.90
2017-03-19T18:50:37.702Z,10.76
2017-03-19T18:55:34.234Z,10.64
2017-03-19T19:00:30.600Z,10.57
2017-03-19T19:05:26.895Z,10.59
2017-03-19T19:10:23.878Z,10.56
2017-03-19T19:15:20.398Z,10.51
2017-03-19T19:20:18.982Z,10.48
2017-03-19T19:25:15.104Z,10.59
2017-03-19T19:30:11.595Z,10.64
2017-03-19T19:35:08.182Z,10.57
2017-03-19T19:40:05.065Z,10.68
2017-03-19T19:45:01.462Z,10.71
2017-03-19T19:49:58.141Z,10.84
2017-03-19T19:54:55.854Z,10.87
2017-03-19T19:59:52.284Z,10.82
2017-03-19T20:04:48.583Z,10.89
2017-03-19T20:09:45.319Z,10.79
2017-03-19T20:14:42.097Z,10.89
2017-03-19T20:19:39.843Z,10.84
2017-03-19T20:24:39.073Z,10.87
2017-03-19T20:29:34.751Z,11.00
2017-03-19T20:34:31.075Z,11.02
2017-03-19T20:39:27.866Z,11.05
2017-03-19T20:44:24.365Z,11.08
2017-03-19T20:49:21.100Z,11.15
2017-03-19T20:54:18.659Z,11.19
2017-03-19T20:59:15.042Z,11.17
2017-03-19T21:04:11.368Z,11.15
2017-03-19T21:09:07.850Z,11.12
2017-03-19T21:14:05.344Z,11.07
2017-03-19T21:19:01.210Z,11.00
2017-03-19T21:23:58.215Z,11.08
2017-03-19T21:28:54.573Z,11.05
2017-03-19T21:33:52.117Z,11.00
2017-03-19T21:38:48.210Z,11.08
2017-03-19T21:43:44.604Z,10.87
2017-03-19T21:48:41.187Z,10.61
2017-03-19T21:53:37.995Z,10.61
2017-03-19T21:58:34.164Z,10.68
2017-03-19T22:03:30.884Z,10.54
2017-03-19T22:08:27.307Z,10.54
2017-03-19T22:13:23.990Z,10.44
2017-03-19T22:18:20.570Z,10.34
2017-03-19T22:23:16.963Z,10.33
2017-03-19T22:28:14.209Z,10.20
2017-03-19T22:33:10.308Z,10.19
2017-03-19T22:38:06.455Z,10.28
2017-03-19T22:43:04.412Z,10.20
2017-03-19T22:48:00.843Z,10.10
2017-03-19T22:52:57.376Z,10.02
2017-03-19T22:57:53.723Z,10.02
2017-03-19T23:02:49.902Z,9.98
2017-03-19T23:07:46.846Z,9.97
2017-03-19T23:12:43.617Z,9.98
2017-03-19T23:17:39.978Z,10.02
2017-03-19T23:22:36.610Z,9.99
2017-03-19T23:27:32.880Z,9.95
2017-03-19T23:32:30.453Z,9.94
2017-03-19T23:37:26.756Z,9.99
2017-03-19T23:42:23.259Z,10.10
2017-03-19T23:47:20.305Z,10.07
2017-03-19T23:52:16.777Z,10.01
2017-03-19T23:57:13.161Z,10.07
